Portada
METAR-TAF:

METAR-TAF

Aeropuertos :

Alpnach, Suiza

latitud: 46-56-19N, longitud: 8-17-03E, altitud: 440 m

Observación

El informe se hizo hace 33 minutos, a las 13:20 UTC
Viento 5 kt del sur
Temperatura 7°C
Humedad 66%
Presión 1021 hPa
Visibilidad 10 km o más
Nubes dispersas a una altura de 8200 ft

METAR: LSMA 171320Z 18005KT 9999 SCT082 07/01 Q1021 RMK BLU+

Hora: 14:53 (13:53 UTC)


TAF: falta

Observaciones y pronósticos meteorológicos de más de 4000 aeropuertos (mensajes METAR y TAF).

Los puntos amarillos y rojos representan las estaciones disponibles.

Ponga el ratón en el punto deseado para ver el nombre de la estación.

Haga clic para ver las observaciones y los pronósticos meteorológicos.

Para cambiar el mapa : haga clic en los botones verdes con una cruz de color negro para hacer un zoom, en el botón verde con un guión para alejar o en las flechas verdes para mapas adyacentes.


METAR-TAF: